Time;durP1;ratioP1;P1;durP2;ratioP2;P2;SDS_P1;SDS_P2;PMS_P1;PMS_P2;Temp;Humidity;BMP_temperature;BMP_pressure;BME280_temperature;BME280_humidity;BME280_pressure;Samples;Min_cycle;Max_cycle;Signal;HPM_P1;HPM_P2
2024/01/26 00:00:08;;;;;;;2.63;1.05;;;33.20;40.90;;;;;;5073391;28;20052;-88
2024/01/26 00:02:35;;;;;;;2.50;1.10;;;33.30;40.90;;;;;;5089681;28;20027;-91
2024/01/26 00:05:03;;;;;;;4.40;1.20;;;33.30;41.10;;;;;;5071053;28;20024;-80
2024/01/26 00:07:31;;;;;;;4.97;1.20;;;33.30;41.50;;;;;;5068604;28;20036;-83
2024/01/26 00:09:58;;;;;;;3.72;1.30;;;33.40;41.20;;;;;;5059296;28;20590;-92
2024/01/26 00:12:26;;;;;;;5.15;1.15;;;33.40;40.90;;;;;;5079625;28;20029;-89
2024/01/26 00:14:53;;;;;;;3.55;1.40;;;33.60;41.40;;;;;;5067771;28;20021;-80
2024/01/26 00:17:20;;;;;;;5.18;1.25;;;33.60;41.30;;;;;;5061120;28;20415;-82
2024/01/26 00:19:48;;;;;;;3.25;1.05;;;33.70;40.70;;;;;;5064196;28;20107;-90
2024/01/26 00:22:15;;;;;;;4.68;1.20;;;33.80;40.80;;;;;;5069396;28;20028;-87
2024/01/26 00:24:42;;;;;;;2.42;1.15;;;33.80;40.70;;;;;;5063920;28;20080;-90
2024/01/26 00:27:10;;;;;;;4.80;1.30;;;33.80;40.40;;;;;;5062939;28;20035;-86
2024/01/26 00:29:37;;;;;;;3.55;1.15;;;33.80;40.70;;;;;;5072781;28;20064;-90
2024/01/26 00:32:04;;;;;;;3.10;1.10;;;33.80;41.00;;;;;;5070860;28;20036;-90
2024/01/26 00:34:32;;;;;;;4.68;1.35;;;33.70;41.00;;;;;;5078351;28;20024;-82
2024/01/26 00:37:01;;;;;;;4.53;1.10;;;33.80;40.60;;;;;;5077678;28;20384;-91
2024/01/26 00:39:29;;;;;;;2.40;1.10;;;33.80;40.70;;;;;;5086471;28;20037;-83
2024/01/26 00:41:56;;;;;;;4.03;1.15;;;33.80;41.10;;;;;;5073293;28;20028;-91
2024/01/26 00:44:23;;;;;;;3.83;1.20;;;33.80;41.90;;;;;;5070946;28;20471;-82
2024/01/26 00:46:51;;;;;;;4.57;1.30;;;33.80;41.70;;;;;;5056185;28;20028;-80
2024/01/26 00:49:18;;;;;;;4.18;1.40;;;33.90;40.70;;;;;;5072644;28;20032;-86
2024/01/26 00:51:48;;;;;;;6.18;1.23;;;33.90;41.20;;;;;;5079480;28;20111;-91
2024/01/26 00:54:15;;;;;;;4.03;1.30;;;33.90;41.30;;;;;;5065321;28;20021;-92
2024/01/26 00:56:43;;;;;;;5.22;1.27;;;34.00;41.90;;;;;;5068156;28;20505;-91
2024/01/26 00:59:12;;;;;;;4.40;1.38;;;34.10;40.60;;;;;;5072553;28;20021;-88
2024/01/26 01:01:40;;;;;;;4.47;1.40;;;34.10;41.40;;;;;;5070571;28;20082;-91
2024/01/26 01:04:08;;;;;;;3.78;1.23;;;34.20;41.40;;;;;;5072328;28;20074;-91
2024/01/26 01:06:53;;;;;;;6.05;1.25;;;34.20;41.20;;;;;;5074121;28;20029;-94
2024/01/26 01:09:20;;;;;;;4.70;1.60;;;34.30;41.70;;;;;;5073653;28;20035;-85
2024/01/26 01:11:52;;;;;;;3.33;1.20;;;34.30;41.40;;;;;;5077371;28;20487;-94
2024/01/26 01:14:32;;;;;;;7.10;1.83;;;34.30;39.60;;;;;;5065922;28;20060;-93
2024/01/26 01:16:59;;;;;;;4.75;1.45;;;34.30;40.10;;;;;;5075589;28;20075;-82
2024/01/26 01:19:36;;;;;;;4.75;1.50;;;34.50;40.20;;;;;;5064242;28;20021;-94
2024/01/26 01:22:03;;;;;;;3.38;1.13;;;34.60;40.70;;;;;;5073588;28;20029;-82
2024/01/26 01:24:30;;;;;;;5.72;1.42;;;34.60;38.70;;;;;;5067320;28;20025;-86
2024/01/26 01:27:02;;;;;;;2.80;1.10;;;34.70;39.40;;;;;;5072580;28;20025;-93
2024/01/26 01:29:29;;;;;;;3.28;1.20;;;34.80;40.50;;;;;;5074571;28;20425;-81
2024/01/26 01:31:57;;;;;;;5.22;1.30;;;34.80;39.70;;;;;;5062935;28;20480;-92
2024/01/26 01:34:30;;;;;;;4.07;1.33;;;34.80;40.00;;;;;;5069920;28;20082;-82
2024/01/26 01:37:06;;;;;;;3.58;1.40;;;34.90;39.10;;;;;;5068037;28;20099;-91
2024/01/26 01:39:34;;;;;;;5.68;1.45;;;35.00;37.00;;;;;;5072723;28;20024;-93
2024/01/26 01:42:02;;;;;;;4.55;2.75;;;35.10;37.70;;;;;;5064650;28;20374;-89
2024/01/26 01:44:31;;;;;;;6.25;2.50;;;35.10;35.80;;;;;;5074643;28;20024;-90
2024/01/26 01:47:00;;;;;;;5.53;1.80;;;35.20;35.80;;;;;;5072721;28;20093;-82
2024/01/26 01:49:27;;;;;;;4.35;1.70;;;35.30;34.90;;;;;;5067757;28;20039;-89
2024/01/26 01:51:58;;;;;;;4.85;1.35;;;35.30;34.40;;;;;;5071196;28;20449;-84
2024/01/26 01:54:26;;;;;;;4.22;1.40;;;35.40;33.30;;;;;;5074749;28;20036;-93
2024/01/26 01:56:56;;;;;;;3.88;1.13;;;35.50;33.20;;;;;;5076251;28;20390;-85
2024/01/26 01:59:23;;;;;;;4.47;1.48;;;35.70;33.80;;;;;;5064869;28;20021;-84
2024/01/26 02:01:51;;;;;;;3.97;1.80;;;35.90;33.60;;;;;;5064559;28;20031;-91
2024/01/26 02:04:21;;;;;;;2.35;1.23;;;36.00;33.30;;;;;;5064541;28;20116;-93
2024/01/26 02:07:02;;;;;;;5.65;1.40;;;36.30;33.40;;;;;;5073598;28;20028;-93
2024/01/26 02:09:30;;;;;;;6.07;1.52;;;36.40;32.50;;;;;;5065732;28;20029;-92
2024/01/26 02:12:00;;;;;;;6.28;1.60;;;36.40;30.90;;;;;;5060667;28;20043;-94
2024/01/26 02:14:27;;;;;;;7.38;1.38;;;36.50;31.20;;;;;;5064932;28;20036;-90
2024/01/26 02:17:00;;;;;;;2.80;1.17;;;36.50;32.00;;;;;;5064375;28;20045;-91
2024/01/26 02:19:33;;;;;;;6.32;2.00;;;36.50;30.10;;;;;;5068525;28;20379;-88
2024/01/26 02:22:00;;;;;;;4.38;1.15;;;36.60;30.60;;;;;;5065298;28;20352;-92
2024/01/26 02:24:35;;;;;;;2.72;1.10;;;36.70;30.80;;;;;;5076296;28;20388;-91
2024/01/26 02:27:07;;;;;;;4.10;0.93;;;36.70;30.90;;;;;;5080374;28;20059;-89
2024/01/26 02:29:35;;;;;;;5.78;1.52;;;36.70;30.50;;;;;;5065743;28;20114;-85
2024/01/26 02:32:02;;;;;;;7.15;1.42;;;36.80;31.60;;;;;;5071807;28;20044;-85
2024/01/26 02:34:31;;;;;;;6.32;1.20;;;36.80;30.00;;;;;;5067730;28;20017;-92
2024/01/26 02:36:58;;;;;;;4.20;1.27;;;36.80;30.50;;;;;;5079490;28;20048;-82
2024/01/26 02:39:28;;;;;;;5.25;1.60;;;36.80;30.20;;;;;;5069838;28;20414;-92
2024/01/26 02:41:57;;;;;;;3.50;1.00;;;36.80;30.90;;;;;;5073696;28;20115;-81
2024/01/26 02:44:26;;;;;;;2.63;1.35;;;36.80;29.30;;;;;;5078537;28;20029;-92
2024/01/26 02:46:54;;;;;;;2.95;1.30;;;36.80;31.10;;;;;;5071357;28;20063;-83
2024/01/26 02:49:22;;;;;;;3.20;1.23;;;36.80;30.70;;;;;;5074527;28;20107;-94
2024/01/26 02:51:49;;;;;;;6.80;1.48;;;36.70;31.50;;;;;;5074755;28;20031;-91
2024/01/26 02:54:17;;;;;;;4.07;1.08;;;36.60;31.30;;;;;;5075595;28;20025;-89
2024/01/26 02:56:45;;;;;;;2.53;1.27;;;36.60;31.40;;;;;;5083830;28;20036;-85
2024/01/26 02:59:12;;;;;;;3.33;1.50;;;36.70;31.00;;;;;;5078464;28;20021;-93
2024/01/26 03:01:41;;;;;;;5.03;1.30;;;36.80;30.40;;;;;;5073419;28;20063;-85
2024/01/26 03:04:08;;;;;;;3.70;1.30;;;37.00;30.20;;;;;;5073278;28;20052;-89
2024/01/26 03:06:36;;;;;;;2.72;1.20;;;37.00;29.90;;;;;;5066169;28;20032;-93
2024/01/26 03:09:09;;;;;;;9.90;2.35;;;37.00;30.30;;;;;;5073884;28;20027;-92
2024/01/26 03:11:42;;;;;;;10.13;2.92;;;36.70;37.60;;;;;;5072695;28;20479;-89
2024/01/26 03:14:11;;;;;;;16.65;4.10;;;36.20;40.60;;;;;;5074138;28;20098;-95
2024/01/26 03:16:42;;;;;;;28.13;5.28;;;35.40;46.20;;;;;;5074009;28;20124;-91
2024/01/26 03:19:09;;;;;;;19.05;4.63;;;34.50;48.50;;;;;;5073680;28;20048;-92
2024/01/26 03:21:47;;;;;;;24.00;5.57;;;33.60;51.20;;;;;;5072961;28;20056;-91
2024/01/26 03:24:15;;;;;;;22.17;5.32;;;32.80;54.20;;;;;;5072830;28;20035;-90
2024/01/26 03:26:43;;;;;;;25.77;5.25;;;32.20;55.60;;;;;;5072013;28;20025;-81
2024/01/26 03:29:10;;;;;;;25.08;5.22;;;31.80;56.50;;;;;;5066623;28;20470;-93
2024/01/26 03:31:38;;;;;;;22.33;5.30;;;31.60;57.40;;;;;;5063865;28;20131;-87
2024/01/26 03:34:06;;;;;;;23.42;5.00;;;31.30;58.40;;;;;;5069745;28;20126;-89
2024/01/26 03:36:34;;;;;;;23.00;5.22;;;31.00;59.60;;;;;;5062250;28;21673;-92
2024/01/26 03:39:03;;;;;;;23.08;5.60;;;30.80;61.20;;;;;;5063692;28;20025;-84
2024/01/26 03:41:31;;;;;;;21.58;5.93;;;30.70;62.00;;;;;;5068077;28;20032;-84
2024/01/26 03:43:58;;;;;;;22.27;5.70;;;30.60;62.70;;;;;;5066921;28;20075;-86
2024/01/26 03:46:27;;;;;;;24.65;6.00;;;30.30;63.30;;;;;;5071150;28;20380;-90
2024/01/26 03:48:54;;;;;;;26.67;6.30;;;30.30;63.70;;;;;;5073858;28;20033;-90
2024/01/26 03:51:21;;;;;;;28.15;5.65;;;30.10;64.20;;;;;;5064604;28;20115;-85
2024/01/26 03:53:49;;;;;;;26.98;6.13;;;29.90;65.30;;;;;;5065010;28;21673;-83
2024/01/26 03:56:17;;;;;;;25.10;6.85;;;29.70;65.60;;;;;;5072426;28;20028;-87
2024/01/26 03:58:45;;;;;;;27.80;6.57;;;29.70;66.20;;;;;;5065876;28;20376;-90
2024/01/26 04:01:13;;;;;;;25.05;5.72;;;29.60;66.50;;;;;;5064201;28;20037;-90
2024/01/26 04:03:40;;;;;;;23.60;6.32;;;29.50;66.40;;;;;;5062583;28;20535;-85
2024/01/26 04:06:08;;;;;;;31.55;6.57;;;29.40;66.70;;;;;;5072378;28;20029;-88
2024/01/26 04:08:35;;;;;;;19.92;5.47;;;29.30;66.80;;;;;;5060444;28;20095;-84
2024/01/26 04:11:03;;;;;;;22.48;5.78;;;29.20;67.30;;;;;;5062481;28;20044;-82
2024/01/26 04:13:30;;;;;;;31.33;5.93;;;29.10;67.30;;;;;;5062019;28;20020;-90
2024/01/26 04:15:58;;;;;;;28.33;6.40;;;28.90;67.80;;;;;;5060070;28;20037;-88
2024/01/26 04:18:25;;;;;;;25.73;5.40;;;28.70;68.30;;;;;;5066281;28;20016;-85
2024/01/26 04:20:52;;;;;;;25.38;5.43;;;28.50;69.00;;;;;;5067702;28;20020;-85
2024/01/26 04:23:21;;;;;;;24.77;5.15;;;28.40;69.20;;;;;;5068119;28;20028;-87
2024/01/26 04:25:48;;;;;;;21.90;5.50;;;28.30;69.00;;;;;;5070615;28;20024;-89
2024/01/26 04:28:16;;;;;;;22.58;4.95;;;28.30;69.10;;;;;;5069602;28;20020;-89
2024/01/26 04:30:44;;;;;;;23.38;5.50;;;28.30;69.20;;;;;;5070182;28;20033;-92
2024/01/26 04:33:13;;;;;;;26.88;4.93;;;28.20;69.20;;;;;;5069529;28;20355;-91
2024/01/26 04:35:40;;;;;;;17.40;4.55;;;28.10;69.40;;;;;;5077824;28;20028;-85
2024/01/26 04:38:08;;;;;;;16.02;4.47;;;28.00;69.50;;;;;;5068228;28;20361;-90
2024/01/26 04:40:38;;;;;;;11.65;3.63;;;28.00;69.60;;;;;;5063881;28;20059;-92
2024/01/26 04:43:08;;;;;;;18.40;3.85;;;27.80;69.40;;;;;;5069784;28;20024;-84
2024/01/26 04:45:35;;;;;;;23.35;4.85;;;27.80;69.50;;;;;;5056298;28;20037;-86
2024/01/26 04:48:04;;;;;;;21.10;4.63;;;27.70;69.80;;;;;;5063425;28;20087;-91
2024/01/26 04:50:33;;;;;;;17.50;3.97;;;27.70;70.10;;;;;;5061632;28;20610;-90
2024/01/26 04:53:01;;;;;;;18.95;4.85;;;27.60;70.30;;;;;;5070532;28;20021;-86
2024/01/26 04:55:29;;;;;;;18.25;4.10;;;27.60;70.20;;;;;;5073563;28;20024;-89
2024/01/26 04:57:56;;;;;;;15.15;3.60;;;27.50;70.60;;;;;;5064579;28;20051;-91
2024/01/26 05:00:24;;;;;;;21.05;3.80;;;27.40;70.80;;;;;;5069499;28;20025;-88
2024/01/26 05:02:51;;;;;;;18.65;3.85;;;27.40;70.80;;;;;;5050998;28;20083;-88
2024/01/26 05:05:18;;;;;;;18.25;3.95;;;27.60;70.80;;;;;;5070638;28;20100;-86
2024/01/26 05:07:46;;;;;;;16.13;4.00;;;27.70;70.50;;;;;;5055537;28;20035;-91
2024/01/26 05:10:15;;;;;;;21.42;3.75;;;27.70;70.60;;;;;;5058685;28;20029;-87
2024/01/26 05:12:43;;;;;;;13.82;3.47;;;27.70;70.30;;;;;;5066712;28;20028;-91
2024/01/26 05:15:11;;;;;;;16.10;3.40;;;27.80;70.30;;;;;;5063423;28;20549;-86
2024/01/26 05:17:39;;;;;;;16.30;3.95;;;27.80;70.10;;;;;;5071635;28;20112;-86
2024/01/26 05:20:08;;;;;;;15.27;3.03;;;27.80;70.00;;;;;;5070549;28;20166;-89
2024/01/26 05:22:36;;;;;;;19.42;3.92;;;27.80;70.00;;;;;;5070755;28;20049;-89
2024/01/26 05:25:03;;;;;;;15.75;3.35;;;27.70;69.70;;;;;;5067024;28;20036;-88
2024/01/26 05:27:31;;;;;;;19.52;3.17;;;27.80;70.00;;;;;;5070015;28;20519;-86
2024/01/26 05:29:58;;;;;;;16.00;3.58;;;27.80;69.90;;;;;;5070727;28;20538;-87
2024/01/26 05:32:26;;;;;;;15.85;3.38;;;27.70;69.70;;;;;;5062357;28;20143;-88
2024/01/26 05:34:53;;;;;;;13.55;3.30;;;27.80;69.40;;;;;;5068736;28;20033;-85
2024/01/26 05:37:20;;;;;;;16.20;3.35;;;27.70;69.80;;;;;;5069199;28;20096;-85
2024/01/26 05:39:49;;;;;;;16.13;3.90;;;27.60;70.10;;;;;;5068518;28;20418;-83
2024/01/26 05:42:16;;;;;;;12.93;3.13;;;27.50;70.40;;;;;;5069588;28;20472;-82
2024/01/26 05:44:43;;;;;;;16.27;2.95;;;27.50;70.40;;;;;;5068895;28;20036;-83
2024/01/26 05:47:11;;;;;;;16.42;3.65;;;27.60;70.40;;;;;;5068844;28;20028;-83
2024/01/26 05:49:39;;;;;;;18.70;3.63;;;27.60;70.20;;;;;;5064535;28;20047;-83
2024/01/26 05:52:06;;;;;;;16.50;3.10;;;27.60;70.00;;;;;;5060585;28;20028;-84
2024/01/26 05:54:33;;;;;;;19.35;3.90;;;27.60;70.10;;;;;;5064947;28;20024;-82
2024/01/26 05:57:01;;;;;;;17.92;3.67;;;27.60;70.20;;;;;;5070404;28;20033;-84
2024/01/26 05:59:28;;;;;;;15.68;3.38;;;27.50;70.40;;;;;;5061954;28;20032;-82
2024/01/26 06:01:55;;;;;;;13.88;3.38;;;27.50;70.60;;;;;;5061685;28;20037;-83
2024/01/26 06:04:23;;;;;;;15.70;3.28;;;27.50;70.60;;;;;;5066563;28;20529;-83
2024/01/26 06:06:50;;;;;;;19.42;3.50;;;27.50;70.70;;;;;;5072634;28;20439;-83
2024/01/26 06:09:18;;;;;;;15.35;3.30;;;27.50;70.80;;;;;;5067511;28;20158;-80
2024/01/26 06:11:45;;;;;;;16.52;3.83;;;27.50;70.70;;;;;;5067646;28;20051;-83
2024/01/26 06:14:13;;;;;;;16.48;3.20;;;27.50;70.80;;;;;;5072665;28;20016;-82
2024/01/26 06:16:40;;;;;;;10.32;2.90;;;27.60;70.20;;;;;;5064354;28;20063;-84
2024/01/26 06:19:11;;;;;;;15.80;3.05;;;27.40;70.70;;;;;;5074524;28;20537;-83
2024/01/26 06:21:38;;;;;;;15.98;3.33;;;27.40;70.90;;;;;;5067463;28;20083;-83
2024/01/26 06:24:08;;;;;;;14.40;3.20;;;27.40;70.70;;;;;;5070804;28;20041;-84
2024/01/26 06:26:37;;;;;;;19.17;3.78;;;27.40;70.80;;;;;;5070712;28;20043;-84
2024/01/26 06:29:04;;;;;;;12.48;2.88;;;27.30;70.70;;;;;;5072909;28;20095;-84
2024/01/26 06:31:31;;;;;;;13.38;3.50;;;27.30;70.90;;;;;;5076158;28;20499;-83
2024/01/26 06:33:59;;;;;;;13.13;3.03;;;27.20;70.70;;;;;;5065480;28;20120;-84
2024/01/26 06:36:26;;;;;;;16.33;3.70;;;27.00;70.70;;;;;;5085401;28;20497;-84
2024/01/26 06:38:53;;;;;;;18.20;3.85;;;26.90;71.20;;;;;;5076210;28;20052;-82
2024/01/26 06:41:21;;;;;;;16.10;4.00;;;26.80;71.60;;;;;;5062327;28;20024;-82
2024/01/26 06:43:51;;;;;;;21.45;4.40;;;26.70;72.00;;;;;;5067317;28;20029;-84
2024/01/26 06:46:22;;;;;;;15.02;5.07;;;26.60;72.20;;;;;;5084974;28;20024;-85
2024/01/26 06:48:53;;;;;;;17.42;4.70;;;26.50;72.40;;;;;;5063156;28;20154;-83
2024/01/26 06:51:20;;;;;;;19.50;5.45;;;26.40;72.70;;;;;;5068563;28;20084;-83
2024/01/26 06:53:48;;;;;;;15.95;4.90;;;26.30;72.90;;;;;;5067204;28;20052;-84
2024/01/26 06:56:15;;;;;;;21.23;5.47;;;26.30;73.10;;;;;;5061974;28;20372;-91
2024/01/26 06:58:43;;;;;;;18.20;5.15;;;26.30;73.20;;;;;;5069161;28;20024;-85
2024/01/26 07:01:11;;;;;;;12.95;4.75;;;26.30;73.30;;;;;;5049142;28;20025;-88
2024/01/26 07:03:38;;;;;;;19.92;5.88;;;26.30;73.30;;;;;;5066571;28;20115;-83
2024/01/26 07:06:06;;;;;;;14.60;4.97;;;26.30;72.70;;;;;;5071932;28;20494;-92
2024/01/26 07:08:35;;;;;;;19.80;5.03;;;26.30;73.00;;;;;;5064022;28;20377;-92
2024/01/26 07:11:04;;;;;;;15.50;4.97;;;26.30;72.50;;;;;;5047496;28;20048;-81
2024/01/26 07:13:31;;;;;;;19.00;5.70;;;26.30;72.70;;;;;;5062398;28;20135;-89
2024/01/26 07:15:58;;;;;;;16.85;5.65;;;26.40;72.70;;;;;;5067030;28;20037;-93
2024/01/26 07:18:26;;;;;;;16.55;5.00;;;26.30;72.40;;;;;;5071971;28;20024;-92
2024/01/26 07:20:53;;;;;;;18.23;5.15;;;26.30;72.50;;;;;;5064636;28;20107;-82
2024/01/26 07:23:21;;;;;;;18.60;5.47;;;26.30;72.60;;;;;;5065373;28;20028;-84
2024/01/26 07:25:51;;;;;;;21.83;5.47;;;26.20;72.30;;;;;;5057812;28;20036;-82
2024/01/26 07:28:18;;;;;;;22.42;5.15;;;26.20;72.40;;;;;;5065905;28;20017;-92
2024/01/26 07:30:47;;;;;;;17.20;5.20;;;26.10;72.50;;;;;;5068934;28;20043;-93
2024/01/26 07:33:14;;;;;;;18.48;5.68;;;26.00;72.70;;;;;;5066202;28;20047;-88
2024/01/26 07:35:41;;;;;;;19.05;4.68;;;25.90;73.00;;;;;;5062509;28;20035;-83
2024/01/26 07:38:09;;;;;;;14.27;4.57;;;25.90;73.10;;;;;;5063311;28;20016;-91
2024/01/26 07:40:36;;;;;;;11.73;4.03;;;25.80;73.20;;;;;;5072860;28;20089;-89
2024/01/26 07:43:05;;;;;;;13.82;4.35;;;25.80;73.30;;;;;;5073509;28;20032;-88
2024/01/26 07:45:32;;;;;;;15.13;4.30;;;25.80;73.10;;;;;;5082473;28;20060;-82
2024/01/26 07:48:00;;;;;;;17.50;4.15;;;25.90;73.20;;;;;;5062408;28;20021;-81
2024/01/26 07:50:27;;;;;;;14.05;3.80;;;25.90;72.90;;;;;;5075076;28;20226;-89
2024/01/26 07:52:54;;;;;;;14.88;3.63;;;25.90;72.90;;;;;;5071176;28;20104;-86
2024/01/26 07:55:21;;;;;;;15.70;4.28;;;25.90;72.90;;;;;;5065430;28;20114;-84
2024/01/26 07:57:49;;;;;;;16.23;4.30;;;25.90;72.80;;;;;;5072288;28;20032;-87
2024/01/26 08:00:17;;;;;;;16.95;4.07;;;25.80;72.70;;;;;;5072200;28;20578;-85
2024/01/26 08:02:44;;;;;;;20.92;4.13;;;25.80;72.80;;;;;;5067842;28;20021;-88
2024/01/26 08:05:12;;;;;;;20.10;4.50;;;25.80;72.90;;;;;;5071776;28;20032;-81
2024/01/26 08:07:40;;;;;;;16.15;4.25;;;25.80;72.50;;;;;;5058344;28;20032;-91
2024/01/26 08:10:09;;;;;;;20.50;4.00;;;25.70;71.90;;;;;;5059077;28;20031;-91
2024/01/26 08:12:37;;;;;;;19.25;4.88;;;25.70;72.50;;;;;;5066873;28;20024;-91
2024/01/26 08:15:06;;;;;;;20.88;3.95;;;25.50;71.80;;;;;;5072053;28;20025;-88
2024/01/26 08:17:34;;;;;;;13.82;4.53;;;25.40;72.30;;;;;;5059868;28;20492;-85
2024/01/26 08:20:03;;;;;;;16.40;4.78;;;25.50;72.50;;;;;;5062395;28;20034;-91
2024/01/26 08:22:31;;;;;;;17.80;4.60;;;25.50;72.70;;;;;;5060398;28;20025;-86
2024/01/26 08:24:58;;;;;;;14.52;4.53;;;25.50;72.70;;;;;;5059093;28;20027;-85
2024/01/26 08:27:26;;;;;;;19.42;4.32;;;25.50;72.50;;;;;;5063098;28;20048;-88
2024/01/26 08:29:53;;;;;;;18.65;5.15;;;25.50;72.50;;;;;;5060820;28;20167;-90
2024/01/26 08:32:21;;;;;;;17.98;4.40;;;25.50;72.20;;;;;;5069620;28;20017;-90
2024/01/26 08:34:48;;;;;;;12.13;4.05;;;25.40;72.60;;;;;;5071230;28;20573;-90
2024/01/26 08:37:16;;;;;;;17.13;4.25;;;25.40;72.70;;;;;;5070105;28;20055;-89
2024/01/26 08:39:46;;;;;;;19.83;3.85;;;25.50;72.80;;;;;;5072446;28;20067;-88
2024/01/26 08:42:13;;;;;;;13.40;3.67;;;25.40;72.20;;;;;;5069030;28;20024;-90
2024/01/26 08:44:42;;;;;;;20.52;4.40;;;25.30;72.20;;;;;;5070281;28;20032;-87
2024/01/26 08:47:09;;;;;;;18.40;3.85;;;25.40;71.90;;;;;;5065772;28;20024;-89
2024/01/26 08:49:36;;;;;;;13.98;3.72;;;25.40;71.70;;;;;;5071249;28;20058;-89
2024/01/26 08:52:05;;;;;;;13.40;3.25;;;25.40;71.50;;;;;;5060849;28;20034;-89
2024/01/26 08:54:33;;;;;;;9.68;3.42;;;25.30;71.40;;;;;;5059904;28;20025;-89
2024/01/26 08:57:00;;;;;;;11.88;3.20;;;25.30;71.10;;;;;;5059932;28;20032;-89
2024/01/26 08:59:28;;;;;;;16.95;3.75;;;25.20;71.20;;;;;;5064979;28;20071;-90
2024/01/26 09:01:56;;;;;;;17.73;3.60;;;25.20;71.00;;;;;;5062663;28;20404;-89
2024/01/26 09:04:23;;;;;;;17.33;3.63;;;25.20;70.70;;;;;;5069224;28;20024;-92
2024/01/26 09:06:52;;;;;;;16.33;3.28;;;25.20;70.80;;;;;;5069260;28;20472;-91
2024/01/26 09:09:19;;;;;;;20.95;3.22;;;25.10;70.40;;;;;;5070700;28;20041;-90
2024/01/26 09:11:51;;;;;;;17.45;3.13;;;25.00;70.00;;;;;;5060221;28;20036;-90
2024/01/26 09:14:19;;;;;;;16.13;3.45;;;24.90;70.40;;;;;;5062231;28;20036;-83
2024/01/26 09:16:51;;;;;;;12.93;3.20;;;25.00;70.90;;;;;;5061992;28;20044;-89
2024/01/26 09:19:19;;;;;;;13.07;2.83;;;25.00;70.90;;;;;;5063863;28;20044;-90
2024/01/26 09:21:47;;;;;;;12.88;3.08;;;25.00;70.70;;;;;;5062253;28;20050;-87
2024/01/26 09:24:14;;;;;;;15.23;3.10;;;25.00;70.70;;;;;;5064571;28;20025;-85
2024/01/26 09:26:42;;;;;;;15.20;2.78;;;25.00;70.10;;;;;;5057437;28;20032;-86
2024/01/26 09:29:09;;;;;;;14.68;2.72;;;24.90;70.30;;;;;;5066953;28;20029;-82
2024/01/26 09:31:36;;;;;;;14.13;3.38;;;25.00;70.70;;;;;;5068918;28;20387;-90
2024/01/26 09:34:04;;;;;;;12.25;2.85;;;25.00;70.80;;;;;;5062963;28;20148;-82
2024/01/26 09:36:31;;;;;;;18.40;3.17;;;25.00;70.20;;;;;;5071567;28;20111;-85
2024/01/26 09:38:59;;;;;;;17.20;3.10;;;25.00;69.70;;;;;;5069132;28;20028;-85
2024/01/26 09:41:30;;;;;;;17.20;3.47;;;25.00;69.20;;;;;;5073742;28;20025;-85
2024/01/26 09:43:57;;;;;;;14.38;2.97;;;24.90;69.50;;;;;;5071721;28;20099;-85
2024/01/26 09:46:25;;;;;;;12.85;2.83;;;25.00;70.00;;;;;;5072525;28;20093;-90
2024/01/26 09:48:55;;;;;;;17.00;3.50;;;24.90;69.50;;;;;;5063229;28;20491;-86
2024/01/26 09:51:27;;;;;;;14.57;3.00;;;24.90;68.80;;;;;;5060528;28;20043;-89
2024/01/26 09:54:00;;;;;;;13.77;3.42;;;24.80;69.60;;;;;;5066736;28;20066;-87
2024/01/26 09:56:29;;;;;;;15.98;3.42;;;24.80;69.40;;;;;;5068613;28;20021;-91
2024/01/26 09:58:56;;;;;;;13.38;3.20;;;24.90;69.60;;;;;;5066461;28;20028;-88
2024/01/26 10:01:25;;;;;;;20.73;3.78;;;24.90;70.40;;;;;;5068523;28;20216;-83
2024/01/26 10:03:53;;;;;;;13.50;3.42;;;24.90;68.80;;;;;;5071968;28;20024;-91
2024/01/26 10:06:21;;;;;;;14.93;3.30;;;24.80;69.50;;;;;;5071092;28;20562;-90
2024/01/26 10:08:48;;;;;;;16.17;3.22;;;24.80;69.40;;;;;;5074203;28;20078;-90
2024/01/26 10:11:16;;;;;;;14.55;3.25;;;24.80;69.70;;;;;;5069826;28;20051;-89
2024/01/26 10:13:43;;;;;;;19.95;4.30;;;24.90;69.70;;;;;;5070274;28;20074;-91
2024/01/26 10:16:13;;;;;;;15.43;3.53;;;24.90;69.50;;;;;;5068754;28;20059;-87
2024/01/26 10:18:45;;;;;;;19.17;3.72;;;24.80;69.20;;;;;;5067784;28;20024;-87
2024/01/26 10:21:14;;;;;;;16.48;3.58;;;24.80;69.60;;;;;;5063783;28;20119;-82
2024/01/26 10:23:42;;;;;;;10.35;2.67;;;24.90;69.40;;;;;;5062080;28;20028;-85
2024/01/26 10:26:13;;;;;;;14.77;3.30;;;24.80;69.80;;;;;;5062758;28;20078;-91
2024/01/26 10:28:40;;;;;;;15.70;3.10;;;24.80;69.30;;;;;;5066747;28;20101;-87
2024/01/26 10:31:08;;;;;;;8.45;2.60;;;24.80;70.00;;;;;;5073598;28;20039;-87
2024/01/26 10:33:40;;;;;;;13.13;3.45;;;24.90;70.20;;;;;;5066368;28;20101;-90
2024/01/26 10:36:13;;;;;;;12.68;2.80;;;24.90;70.10;;;;;;5073888;28;20028;-90
2024/01/26 10:38:43;;;;;;;19.48;3.38;;;25.00;70.20;;;;;;5070498;28;20387;-86
2024/01/26 10:41:16;;;;;;;20.65;3.65;;;25.00;69.90;;;;;;5061040;28;20040;-90
2024/01/26 10:43:45;;;;;;;9.88;2.80;;;24.90;69.70;;;;;;5067082;28;20056;-89
2024/01/26 10:46:13;;;;;;;10.02;2.90;;;24.90;70.00;;;;;;5082418;28;20198;-84
2024/01/26 10:48:48;;;;;;;13.63;2.80;;;24.90;70.00;;;;;;5080677;28;20104;-85
2024/01/26 10:51:17;;;;;;;20.50;3.73;;;24.90;70.10;;;;;;5060892;28;20337;-91
2024/01/26 10:53:46;;;;;;;16.15;3.88;;;24.90;70.00;;;;;;5059095;28;20387;-87
2024/01/26 10:56:13;;;;;;;13.73;3.40;;;24.90;70.00;;;;;;5071999;28;20025;-85
2024/01/26 10:58:42;;;;;;;24.73;4.20;;;24.90;69.80;;;;;;5056263;28;20554;-83
2024/01/26 11:01:11;;;;;;;18.73;4.22;;;24.90;69.30;;;;;;5063311;28;21606;-88
2024/01/26 11:04:24;;;;;;;13.70;3.40;;;24.80;69.60;;;;;;5062114;28;20503;-91
2024/01/26 11:06:52;;;;;;;16.10;3.30;;;24.80;69.60;;;;;;5032924;28;20436;-89
2024/01/26 11:09:22;;;;;;;23.20;3.60;;;24.80;69.80;;;;;;5069689;28;20025;-89
2024/01/26 11:11:53;;;;;;;13.15;3.05;;;24.80;69.30;;;;;;5064875;28;20132;-89
2024/01/26 11:14:27;;;;;;;18.60;3.30;;;24.80;69.80;;;;;;5070708;28;20499;-85
2024/01/26 11:17:09;;;;;;;14.90;2.97;;;24.80;70.00;;;;;;5066113;28;20059;-85
2024/01/26 11:19:37;;;;;;;12.13;3.28;;;24.80;69.90;;;;;;5065315;28;20025;-85
2024/01/26 11:22:08;;;;;;;15.25;3.63;;;24.80;70.40;;;;;;5062582;28;20472;-84
2024/01/26 11:24:36;;;;;;;13.70;3.30;;;24.80;70.80;;;;;;5062684;28;20041;-86
2024/01/26 11:27:04;;;;;;;14.85;3.70;;;24.80;70.80;;;;;;5081630;28;20475;-86
2024/01/26 11:29:40;;;;;;;13.88;3.28;;;24.80;70.80;;;;;;5070721;28;20115;-84
2024/01/26 11:32:22;;;;;;;18.35;4.03;;;24.90;71.00;;;;;;5071299;28;20476;-84
2024/01/26 11:35:00;;;;;;;20.35;3.40;;;24.90;71.20;;;;;;5063531;28;20056;-86
2024/01/26 11:37:29;;;;;;;14.90;3.42;;;24.90;71.30;;;;;;5060671;28;20047;-85
2024/01/26 11:39:57;;;;;;;16.90;4.20;;;24.90;70.80;;;;;;5077612;28;20039;-86
2024/01/26 11:42:24;;;;;;;16.50;3.60;;;24.80;71.10;;;;;;5063183;28;20431;-83
2024/01/26 11:45:13;;;;;;;14.15;3.03;;;24.80;71.10;;;;;;5059322;28;20107;-83
2024/01/26 11:47:45;;;;;;;15.98;4.05;;;24.90;71.30;;;;;;5061095;28;20120;-80
2024/01/26 11:50:13;;;;;;;17.17;3.63;;;24.90;71.10;;;;;;5069017;28;20058;-80
2024/01/26 11:52:40;;;;;;;11.73;3.40;;;24.90;71.20;;;;;;5070443;28;20357;-80
2024/01/26 11:55:08;;;;;;;16.55;3.83;;;24.90;71.00;;;;;;5071372;28;20035;-84
2024/01/26 11:57:35;;;;;;;21.52;3.78;;;24.80;70.60;;;;;;5072506;28;20356;-85
2024/01/26 12:00:09;;;;;;;16.77;3.95;;;24.90;70.80;;;;;;5070685;28;20106;-87
2024/01/26 12:02:37;;;;;;;14.00;3.38;;;24.80;70.40;;;;;;5073938;28;20017;-85
2024/01/26 12:05:04;;;;;;;15.88;2.97;;;24.80;70.80;;;;;;5076240;28;20085;-80
2024/01/26 12:07:32;;;;;;;18.38;3.25;;;24.80;70.80;;;;;;5069245;28;20051;-80
2024/01/26 12:10:03;;;;;;;22.58;4.40;;;24.80;71.00;;;;;;5068942;28;20492;-81
2024/01/26 12:12:33;;;;;;;15.82;3.72;;;24.80;70.90;;;;;;5070857;28;20111;-80
2024/01/26 12:15:02;;;;;;;12.48;3.28;;;24.80;70.80;;;;;;5067162;28;20101;-81
2024/01/26 12:17:30;;;;;;;17.05;3.45;;;24.80;70.50;;;;;;5065745;28;20489;-82
2024/01/26 12:19:57;;;;;;;16.33;3.53;;;24.70;70.00;;;;;;5068352;28;20046;-91
2024/01/26 12:22:26;;;;;;;21.02;3.58;;;24.70;69.70;;;;;;5069999;28;20082;-80
2024/01/26 12:24:55;;;;;;;17.60;3.33;;;24.60;69.80;;;;;;5072242;28;20040;-81
2024/01/26 12:27:23;;;;;;;17.80;3.15;;;24.70;70.00;;;;;;5067568;28;20024;-81
2024/01/26 12:29:50;;;;;;;23.65;3.80;;;24.60;70.00;;;;;;5073756;28;20032;-82
2024/01/26 12:32:18;;;;;;;14.07;3.45;;;24.60;69.50;;;;;;5067458;28;20044;-82
2024/01/26 12:34:46;;;;;;;15.27;3.53;;;24.60;69.50;;;;;;5068808;28;20020;-90
2024/01/26 12:37:16;;;;;;;12.23;3.00;;;24.60;70.30;;;;;;5068215;28;20044;-91
2024/01/26 12:39:43;;;;;;;15.52;3.50;;;24.60;70.10;;;;;;5072601;28;20040;-92
2024/01/26 12:42:11;;;;;;;17.33;3.10;;;24.60;69.70;;;;;;5069692;28;20103;-83
2024/01/26 12:44:38;;;;;;;16.38;3.40;;;24.60;69.60;;;;;;5068337;28;20037;-90
2024/01/26 12:47:07;;;;;;;11.63;3.00;;;24.50;69.60;;;;;;5064782;28;20025;-91